createdAt,value
2022-12-23T00:01:20.311Z,6.00
2022-12-23T00:03:47.719Z,6.00
2022-12-23T00:06:17.399Z,5.80
2022-12-23T00:08:45.196Z,3.60
2022-12-23T00:11:20.639Z,4.00
2022-12-23T00:14:06.492Z,6.80
2022-12-23T00:16:37.497Z,6.00
2022-12-23T00:19:06.043Z,6.00
2022-12-23T00:21:34.088Z,4.00
2022-12-23T00:24:01.432Z,4.80
2022-12-23T00:26:29.282Z,4.20
2022-12-23T00:28:58.867Z,5.20
2022-12-23T00:31:26.553Z,4.00
2022-12-23T00:33:54.601Z,4.80
2022-12-23T00:36:27.986Z,4.00
2022-12-23T00:39:15.738Z,2.80
2022-12-23T00:42:02.014Z,1.80
2022-12-23T00:44:30.037Z,6.00
2022-12-23T00:46:57.441Z,2.20
2022-12-23T00:49:43.129Z,7.00
2022-12-23T00:52:14.108Z,4.00
2022-12-23T00:54:41.651Z,4.00
2022-12-23T00:57:08.927Z,0.80
2022-12-23T00:59:36.452Z,4.40
2022-12-23T01:02:22.664Z,7.00
2022-12-23T01:05:08.786Z,4.60
2022-12-23T01:07:36.353Z,6.60
2022-12-23T01:10:04.102Z,4.80
2022-12-23T01:12:31.685Z,5.20
2022-12-23T01:14:59.512Z,5.20
2022-12-23T01:17:27.189Z,4.00
2022-12-23T01:19:54.522Z,5.40
2022-12-23T01:22:21.906Z,4.00
2022-12-23T01:24:49.341Z,5.20
2022-12-23T01:27:16.912Z,4.80
2022-12-23T01:29:44.342Z,5.00
2022-12-23T01:32:12.028Z,4.00
2022-12-23T01:34:39.383Z,4.00
2022-12-23T01:37:07.659Z,2.20
2022-12-23T01:39:35.100Z,7.00
2022-12-23T01:42:21.300Z,5.00
2022-12-23T01:44:51.911Z,5.20
2022-12-23T01:47:34.669Z,6.20
2022-12-23T01:50:04.904Z,7.00
2022-12-23T01:52:39.300Z,5.80
2022-12-23T01:55:07.819Z,5.80
2022-12-23T01:57:40.817Z,7.00
2022-12-23T02:00:30.172Z,7.00
2022-12-23T02:03:16.485Z,3.80
2022-12-23T02:05:46.518Z,6.80
2022-12-23T02:08:34.926Z,7.00
2022-12-23T02:11:48.025Z,7.20
2022-12-23T02:15:20.869Z,7.00
2022-12-23T02:17:56.893Z,7.00
2022-12-23T02:21:01.661Z,7.00
2022-12-23T02:24:05.919Z,5.20
2022-12-23T02:27:10.628Z,5.60
2022-12-23T02:29:58.799Z,5.00
2022-12-23T02:33:11.139Z,7.20
2022-12-23T02:35:55.963Z,5.20
2022-12-23T02:38:42.192Z,3.20
2022-12-23T02:41:43.174Z,2.00
2022-12-23T02:44:43.356Z,6.20
2022-12-23T02:47:21.727Z,3.40
2022-12-23T02:49:57.357Z,5.20
2022-12-23T02:52:31.223Z,6.20
2022-12-23T02:55:13.896Z,7.00
2022-12-23T02:57:46.660Z,5.20
2022-12-23T03:00:15.702Z,4.00
2022-12-23T03:02:44.289Z,5.20
2022-12-23T03:05:36.781Z,6.60
2022-12-23T03:08:07.811Z,5.60
2022-12-23T03:10:53.326Z,5.00
2022-12-23T03:13:38.627Z,6.60
2022-12-23T03:16:43.174Z,5.80
2022-12-23T03:19:16.469Z,5.20
2022-12-23T03:21:58.614Z,5.80
2022-12-23T03:24:54.897Z,7.60
2022-12-23T03:27:37.566Z,5.40
2022-12-23T03:30:15.325Z,5.20
2022-12-23T03:32:59.792Z,8.00
2022-12-23T03:35:33.705Z,7.20
2022-12-23T03:38:03.857Z,5.40
2022-12-23T03:40:42.067Z,5.00
2022-12-23T03:43:19.270Z,4.80
2022-12-23T03:45:54.726Z,6.60
2022-12-23T03:48:30.014Z,5.00
2022-12-23T03:51:03.688Z,5.00
2022-12-23T03:53:52.263Z,5.40
2022-12-23T03:56:30.746Z,4.20
2022-12-23T03:59:13.008Z,5.20
2022-12-23T04:02:04.532Z,6.80
2022-12-23T04:04:56.115Z,4.80
2022-12-23T04:07:46.777Z,5.20
2022-12-23T04:10:14.771Z,6.60
2022-12-23T04:12:42.815Z,5.00
2022-12-23T04:15:13.156Z,7.00
2022-12-23T04:17:40.970Z,5.00
2022-12-23T04:20:09.006Z,5.00
2022-12-23T04:22:36.344Z,4.80
2022-12-23T04:25:03.678Z,1.00
2022-12-23T04:27:31.004Z,4.20
2022-12-23T04:29:58.609Z,2.00
2022-12-23T04:32:26.992Z,4.00
2022-12-23T04:34:54.402Z,5.40
2022-12-23T04:37:21.885Z,5.00
2022-12-23T04:39:49.422Z,5.00
2022-12-23T04:42:16.716Z,7.00
2022-12-23T04:44:44.222Z,4.00
2022-12-23T04:47:11.672Z,4.20
2022-12-23T04:49:39.247Z,4.00
2022-12-23T04:52:06.533Z,4.40
2022-12-23T04:54:34.498Z,4.40
2022-12-23T04:57:01.886Z,4.20
2022-12-23T04:59:29.621Z,4.20
2022-12-23T05:01:57.258Z,5.00
2022-12-23T05:04:25.235Z,5.00
2022-12-23T05:06:52.786Z,4.00
2022-12-23T05:09:20.370Z,5.00
2022-12-23T05:11:47.683Z,3.60
2022-12-23T05:14:14.968Z,2.00
2022-12-23T05:16:42.287Z,4.00
2022-12-23T05:19:11.361Z,0.40
2022-12-23T05:21:38.685Z,3.60
2022-12-23T05:24:06.183Z,4.00
2022-12-23T05:26:33.592Z,5.00
2022-12-23T05:29:00.950Z,4.00
2022-12-23T05:31:28.603Z,4.00
2022-12-23T05:34:00.853Z,4.00
2022-12-23T05:36:31.720Z,4.80
2022-12-23T05:38:59.586Z,4.00
2022-12-23T05:41:29.373Z,1.00
2022-12-23T05:43:56.761Z,5.00
2022-12-23T05:46:26.864Z,4.00
2022-12-23T05:48:54.984Z,4.00
2022-12-23T05:51:22.407Z,4.00
2022-12-23T05:53:50.164Z,2.00
2022-12-23T05:56:17.524Z,5.00
2022-12-23T05:58:44.816Z,5.00
2022-12-23T06:01:12.338Z,2.00
2022-12-23T06:03:40.124Z,5.00
2022-12-23T06:06:07.686Z,4.00
2022-12-23T06:08:35.033Z,2.80
2022-12-23T06:11:05.792Z,0.80
2022-12-23T06:13:33.417Z,4.00
2022-12-23T06:16:00.865Z,1.20
2022-12-23T06:18:28.291Z,1.80
2022-12-23T06:20:55.765Z,2.40
2022-12-23T06:23:23.356Z,4.00
2022-12-23T06:25:50.764Z,1.00
2022-12-23T06:28:18.387Z,0.00
2022-12-23T06:30:45.923Z,4.60
2022-12-23T06:33:13.654Z,3.60
2022-12-23T06:35:41.699Z,1.00
2022-12-23T06:38:12.257Z,6.20
2022-12-23T06:40:40.347Z,3.60
2022-12-23T06:43:07.943Z,2.40
2022-12-23T06:45:35.234Z,3.20
2022-12-23T06:48:02.530Z,2.40
2022-12-23T06:50:29.811Z,4.00
2022-12-23T06:52:57.173Z,1.80
2022-12-23T06:55:24.502Z,4.00
2022-12-23T06:57:51.662Z,2.40
2022-12-23T07:00:19.188Z,4.00
2022-12-23T07:02:46.865Z,4.00
2022-12-23T07:05:14.499Z,3.20
2022-12-23T07:07:41.856Z,2.40
2022-12-23T07:10:09.682Z,4.40
2022-12-23T07:12:37.270Z,4.00
2022-12-23T07:15:06.033Z,4.00
2022-12-23T07:17:33.922Z,3.60
2022-12-23T07:20:01.417Z,2.80
2022-12-23T07:22:28.841Z,4.00
2022-12-23T07:24:56.584Z,4.20
2022-12-23T07:27:24.203Z,4.20
2022-12-23T07:29:52.203Z,4.80
2022-12-23T07:32:19.805Z,2.00
2022-12-23T07:34:47.324Z,4.00
2022-12-23T07:37:14.886Z,5.00
2022-12-23T07:39:42.499Z,3.20
2022-12-23T07:42:42.893Z,1.40
2022-12-23T07:44:57.845Z,2.80
2022-12-23T07:47:25.570Z,4.80
2022-12-23T07:49:53.286Z,3.60
2022-12-23T07:52:20.721Z,5.00
2022-12-23T07:54:48.444Z,4.60
2022-12-23T07:57:15.821Z,4.60
2022-12-23T07:59:43.204Z,4.80
2022-12-23T08:02:11.672Z,2.00
2022-12-23T08:04:45.613Z,4.20
2022-12-23T08:07:13.859Z,4.40
2022-12-23T08:09:41.149Z,4.00
2022-12-23T08:12:08.388Z,4.20
2022-12-23T08:14:35.642Z,3.60
2022-12-23T08:17:03.097Z,5.40
2022-12-23T08:19:30.324Z,4.20
2022-12-23T08:21:57.561Z,2.80
2022-12-23T08:24:24.951Z,4.00
2022-12-23T08:26:52.210Z,5.40
2022-12-23T08:29:19.423Z,2.20
2022-12-23T08:31:46.807Z,5.20
2022-12-23T08:34:14.611Z,4.00
2022-12-23T08:36:42.224Z,4.60
2022-12-23T08:39:11.808Z,4.80
2022-12-23T08:41:44.861Z,5.20
2022-12-23T08:44:12.801Z,5.80
2022-12-23T08:46:40.462Z,4.00
2022-12-23T08:49:08.373Z,4.40
2022-12-23T08:51:36.490Z,5.80
2022-12-23T08:54:05.015Z,2.80
2022-12-23T08:56:35.786Z,6.60
2022-12-23T08:59:03.957Z,5.00
2022-12-23T09:01:33.762Z,5.00
2022-12-23T09:04:06.097Z,5.00
2022-12-23T09:06:41.089Z,4.00
2022-12-23T09:09:10.900Z,0.20
2022-12-23T09:11:39.002Z,6.20
2022-12-23T09:14:08.904Z,6.00
2022-12-23T09:16:37.155Z,5.80
2022-12-23T09:19:05.347Z,6.00
2022-12-23T09:21:32.891Z,6.00
2022-12-23T09:24:00.631Z,5.00
2022-12-23T09:26:30.400Z,5.00
2022-12-23T09:28:58.968Z,3.20
2022-12-23T09:31:34.083Z,5.40
2022-12-23T09:34:04.571Z,6.20
2022-12-23T09:36:32.205Z,5.00
2022-12-23T09:38:59.918Z,2.00
2022-12-23T09:42:01.787Z,4.20
2022-12-23T09:44:56.123Z,4.00
2022-12-23T09:47:28.047Z,5.20
2022-12-23T09:50:04.093Z,4.40
2022-12-23T09:52:57.709Z,4.80
2022-12-23T09:55:55.809Z,4.00
2022-12-23T09:58:44.381Z,3.40
2022-12-23T10:01:40.222Z,2.00
2022-12-23T10:04:39.728Z,5.00
2022-12-23T10:07:11.265Z,2.00
2022-12-23T10:09:43.928Z,5.40
2022-12-23T10:12:39.404Z,7.00
2022-12-23T10:15:37.559Z,7.00
2022-12-23T10:18:21.150Z,4.40
2022-12-23T10:20:57.742Z,4.00
2022-12-23T10:23:38.483Z,4.40
2022-12-23T10:26:33.037Z,2.00
2022-12-23T10:29:18.962Z,4.80
2022-12-23T10:32:01.717Z,4.20
2022-12-23T10:34:44.222Z,4.00
2022-12-23T10:37:21.019Z,4.60
2022-12-23T10:39:57.503Z,4.00
2022-12-23T10:42:38.011Z,4.00
2022-12-23T10:45:08.468Z,4.00
2022-12-23T10:48:05.130Z,2.80
2022-12-23T10:51:13.766Z,4.00
2022-12-23T10:53:45.014Z,2.80
2022-12-23T10:56:13.728Z,1.00
2022-12-23T10:58:46.980Z,4.00
2022-12-23T11:01:26.034Z,4.00
2022-12-23T11:04:17.947Z,1.80
2022-12-23T11:07:10.633Z,1.00
2022-12-23T11:09:46.667Z,3.80
2022-12-23T11:12:15.081Z,4.40
2022-12-23T11:14:43.791Z,2.00
2022-12-23T11:17:37.741Z,2.00
2022-12-23T11:20:11.585Z,4.00
2022-12-23T11:22:58.555Z,4.00
2022-12-23T11:25:43.201Z,4.00
2022-12-23T11:28:11.956Z,2.00
2022-12-23T11:30:55.883Z,1.40
2022-12-23T11:33:30.424Z,1.40
2022-12-23T11:36:25.604Z,2.00
2022-12-23T11:38:53.077Z,1.80
2022-12-23T11:41:28.994Z,1.00
2022-12-23T11:44:05.457Z,4.00
2022-12-23T11:46:34.773Z,4.00
2022-12-23T11:49:28.320Z,2.80
2022-12-23T11:52:19.042Z,2.00
2022-12-23T11:54:56.015Z,2.00
2022-12-23T11:57:47.804Z,2.40
2022-12-23T12:00:26.519Z,4.40
2022-12-23T12:02:57.422Z,4.40
2022-12-23T12:05:38.966Z,1.00
2022-12-23T12:08:30.452Z,2.00
2022-12-23T12:11:07.405Z,2.80
2022-12-23T12:13:44.678Z,2.00
2022-12-23T12:16:39.398Z,4.00
2022-12-23T12:19:37.248Z,4.00
2022-12-23T12:22:12.840Z,3.20
2022-12-23T12:24:49.005Z,2.00
2022-12-23T12:27:21.082Z,1.00
2022-12-23T12:29:56.247Z,2.00
2022-12-23T12:32:40.262Z,4.00
2022-12-23T12:35:30.547Z,3.60
2022-12-23T12:38:16.347Z,3.20
2022-12-23T12:40:49.731Z,1.20
2022-12-23T12:43:42.649Z,2.00
2022-12-23T12:46:33.743Z,2.00
2022-12-23T12:49:52.775Z,3.20
2022-12-23T12:52:22.729Z,4.80
2022-12-23T12:55:06.651Z,2.00
2022-12-23T12:57:37.204Z,4.00
2022-12-23T13:00:09.770Z,1.80
2022-12-23T13:03:14.499Z,3.60
2022-12-23T13:05:54.119Z,4.00
2022-12-23T13:08:35.877Z,3.20
2022-12-23T13:11:22.197Z,2.00
2022-12-23T13:14:02.761Z,3.20
2022-12-23T13:16:45.188Z,2.40
2022-12-23T13:19:47.362Z,3.60
2022-12-23T13:22:18.209Z,1.80
2022-12-23T13:24:57.946Z,0.00
2022-12-23T13:27:34.731Z,3.20
2022-12-23T13:30:20.419Z,1.00
2022-12-23T13:33:20.994Z,1.80
2022-12-23T13:36:11.582Z,4.00
2022-12-23T13:39:11.735Z,4.20
2022-12-23T13:41:50.852Z,0.00
2022-12-23T13:44:19.062Z,2.00
2022-12-23T13:47:04.298Z,4.00
2022-12-23T13:50:13.855Z,2.00
2022-12-23T13:53:10.638Z,2.00
2022-12-23T13:56:38.987Z,2.80
2022-12-23T13:59:11.388Z,3.60
2022-12-23T14:01:41.696Z,2.80
2022-12-23T14:04:33.891Z,4.00
2022-12-23T14:07:19.330Z,4.00
2022-12-23T14:09:55.876Z,0.00
2022-12-23T14:12:31.627Z,2.00
2022-12-23T14:15:29.905Z,2.00
2022-12-23T14:18:09.090Z,2.00
2022-12-23T14:21:08.722Z,2.00
2022-12-23T14:24:11.925Z,2.00
2022-12-23T14:26:39.215Z,3.20
2022-12-23T14:29:35.204Z,4.60
2022-12-23T14:32:02.631Z,2.40
2022-12-23T14:34:34.445Z,2.00
2022-12-23T14:37:20.502Z,4.00
2022-12-23T14:39:48.946Z,2.00
2022-12-23T14:42:35.264Z,1.80
2022-12-23T14:45:36.589Z,3.60
2022-12-23T14:48:34.847Z,2.00
2022-12-23T14:51:32.925Z,1.60
2022-12-23T14:54:00.314Z,1.40
2022-12-23T14:56:40.494Z,2.00
2022-12-23T14:59:30.317Z,2.00
2022-12-23T15:02:02.267Z,4.00
2022-12-23T15:04:44.713Z,3.20
2022-12-23T15:07:43.677Z,2.00
2022-12-23T15:10:21.707Z,1.00
2022-12-23T15:12:52.962Z,2.00
2022-12-23T15:15:27.250Z,3.20
2022-12-23T15:18:13.649Z,1.80
2022-12-23T15:20:41.080Z,2.00
2022-12-23T15:23:11.481Z,2.00
2022-12-23T15:25:46.396Z,4.00
2022-12-23T15:28:20.679Z,2.00
2022-12-23T15:30:51.892Z,2.00
2022-12-23T15:34:01.608Z,1.00
2022-12-23T15:36:15.531Z,1.40
2022-12-23T15:38:42.948Z,1.80
2022-12-23T15:41:19.037Z,1.80
2022-12-23T15:43:46.509Z,1.00
2022-12-23T15:46:25.024Z,2.00
2022-12-23T15:48:56.833Z,1.00
2022-12-23T15:52:11.022Z,2.00
2022-12-23T15:54:54.471Z,2.00
2022-12-23T15:57:26.126Z,1.80
2022-12-23T15:59:54.091Z,2.80
2022-12-23T16:05:30.462Z,2.00
2022-12-23T16:08:31.745Z,1.00
2022-12-23T16:11:37.541Z,2.00
2022-12-23T16:14:49.985Z,1.60
2022-12-23T16:17:32.104Z,1.60
2022-12-23T16:20:25.411Z,0.60
2022-12-23T16:22:56.142Z,1.00
2022-12-23T16:25:27.807Z,1.00
2022-12-23T16:27:57.802Z,1.60
2022-12-23T16:30:28.110Z,1.80
2022-12-23T16:32:58.262Z,2.00
2022-12-23T16:35:30.566Z,2.00
2022-12-23T16:38:20.611Z,2.00
2022-12-23T16:40:50.919Z,1.20
2022-12-23T16:43:19.389Z,2.80
2022-12-23T16:45:50.821Z,2.00
2022-12-23T16:48:36.719Z,2.00
2022-12-23T16:51:10.891Z,1.00
2022-12-23T16:53:38.429Z,2.00
2022-12-23T16:56:20.353Z,4.00
2022-12-23T16:58:48.424Z,2.00
2022-12-23T17:01:22.145Z,2.00
2022-12-23T17:03:50.028Z,2.00
2022-12-23T17:06:17.919Z,4.40
2022-12-23T17:08:45.331Z,2.00
2022-12-23T17:11:21.045Z,4.00
2022-12-23T17:13:48.392Z,4.00
2022-12-23T17:16:20.166Z,2.80
2022-12-23T17:18:48.993Z,4.00
2022-12-23T17:21:25.191Z,2.00
2022-12-23T17:23:54.741Z,2.00
2022-12-23T17:26:22.051Z,2.40
2022-12-23T17:28:49.243Z,3.20
2022-12-23T17:31:26.235Z,2.80
2022-12-23T17:33:54.666Z,2.00
2022-12-23T17:36:22.051Z,2.40
2022-12-23T17:38:49.571Z,3.20
2022-12-23T17:41:26.890Z,1.60
2022-12-23T17:43:54.340Z,2.00
2022-12-23T17:46:21.771Z,2.80
2022-12-23T17:48:49.388Z,3.20
2022-12-23T17:51:19.479Z,2.40
2022-12-23T17:53:53.173Z,3.20
2022-12-23T17:56:25.471Z,1.60
2022-12-23T17:58:52.877Z,2.00
2022-12-23T18:01:27.560Z,3.60
2022-12-23T18:03:56.220Z,1.40
2022-12-23T18:06:25.037Z,1.00
2022-12-23T18:08:52.430Z,4.00
2022-12-23T18:11:34.066Z,4.00
2022-12-23T18:14:02.786Z,2.40
2022-12-23T18:16:30.541Z,4.00
2022-12-23T18:18:57.867Z,2.00
2022-12-23T18:21:28.367Z,0.00
2022-12-23T18:23:58.961Z,2.00
2022-12-23T18:26:26.841Z,2.00
2022-12-23T18:28:54.540Z,2.00
2022-12-23T18:31:27.605Z,1.20
2022-12-23T18:33:55.178Z,2.00
2022-12-23T18:36:28.612Z,3.60
2022-12-23T18:38:57.289Z,2.00
2022-12-23T18:41:26.333Z,1.80
2022-12-23T18:43:54.382Z,1.80
2022-12-23T18:46:21.809Z,1.00
2022-12-23T18:48:49.270Z,3.60
2022-12-23T18:51:18.641Z,4.00
2022-12-23T18:53:47.424Z,2.00
2022-12-23T18:56:16.503Z,4.00
2022-12-23T18:58:43.888Z,2.00
2022-12-23T19:01:13.060Z,2.80
2022-12-23T19:03:41.096Z,2.00
2022-12-23T19:06:09.775Z,4.00
2022-12-23T19:08:37.862Z,4.20
2022-12-23T19:11:13.961Z,2.80
2022-12-23T19:13:41.731Z,3.60
2022-12-23T19:16:14.289Z,2.00
2022-12-23T19:18:41.761Z,2.00
2022-12-23T19:21:09.618Z,1.20
2022-12-23T19:23:37.480Z,1.40
2022-12-23T19:26:06.347Z,1.00
2022-12-23T19:28:33.858Z,2.40
2022-12-23T19:31:01.192Z,1.40
2022-12-23T19:33:28.469Z,1.60
2022-12-23T19:35:55.867Z,0.00
2022-12-23T19:38:23.168Z,1.00
2022-12-23T19:40:57.726Z,1.80
2022-12-23T19:43:25.215Z,2.00
2022-12-23T19:46:04.201Z,1.20
2022-12-23T19:48:31.663Z,0.00
2022-12-23T19:50:59.636Z,1.00
2022-12-23T19:53:27.630Z,1.00
2022-12-23T19:56:06.484Z,1.40
2022-12-23T19:58:36.163Z,1.00
2022-12-23T20:01:13.972Z,0.00
2022-12-23T20:03:42.734Z,0.00
2022-12-23T20:06:19.231Z,0.00
2022-12-23T20:08:48.205Z,1.00
2022-12-23T20:11:18.724Z,1.00
2022-12-23T20:13:47.734Z,0.40
2022-12-23T20:16:15.266Z,0.00
2022-12-23T20:18:43.029Z,1.00
2022-12-23T20:21:10.644Z,0.00
2022-12-23T20:23:38.330Z,0.00
2022-12-23T20:26:06.524Z,0.60
2022-12-23T20:28:34.767Z,0.60
2022-12-23T20:31:15.082Z,0.00
2022-12-23T20:33:43.090Z,0.00
2022-12-23T20:36:13.145Z,0.00
2022-12-23T20:38:42.824Z,0.00
2022-12-23T20:41:13.560Z,0.20
2022-12-23T20:43:41.542Z,0.00
2022-12-23T20:46:12.082Z,0.00
2022-12-23T20:48:39.681Z,0.00
2022-12-23T20:51:10.648Z,0.00
2022-12-23T20:53:38.733Z,0.00
2022-12-23T20:56:09.206Z,0.00
2022-12-23T20:58:55.115Z,0.00
2022-12-23T21:01:25.294Z,0.00
2022-12-23T21:03:53.454Z,0.40
2022-12-23T21:06:21.370Z,0.60
2022-12-23T21:08:49.249Z,1.00
2022-12-23T21:11:17.203Z,1.00
2022-12-23T21:13:48.534Z,0.40
2022-12-23T21:16:16.798Z,0.80
2022-12-23T21:18:46.092Z,0.00
2022-12-23T21:21:13.694Z,1.00
2022-12-23T21:23:42.800Z,0.60
2022-12-23T21:26:12.193Z,0.40
2022-12-23T21:28:41.741Z,0.60
2022-12-23T21:31:10.135Z,0.20
2022-12-23T21:33:39.809Z,0.00
2022-12-23T21:36:08.619Z,1.40
2022-12-23T21:38:38.998Z,1.00
2022-12-23T21:41:09.574Z,1.00
2022-12-23T21:43:37.479Z,0.80
2022-12-23T21:46:08.765Z,0.00
2022-12-23T21:48:37.050Z,0.00
2022-12-23T21:51:13.069Z,0.00
2022-12-23T21:53:41.400Z,0.00
2022-12-23T21:56:12.104Z,0.40
2022-12-23T21:58:40.361Z,0.00
2022-12-23T22:01:11.907Z,0.80
2022-12-23T22:03:40.210Z,0.00
2022-12-23T22:06:13.100Z,0.20
2022-12-23T22:08:41.457Z,0.00
2022-12-23T22:11:13.597Z,0.00
2022-12-23T22:13:42.089Z,2.00
2022-12-23T22:16:11.377Z,1.00
2022-12-23T22:18:39.219Z,1.00
2022-12-23T22:21:12.408Z,0.20
2022-12-23T22:23:41.185Z,1.00
2022-12-23T22:26:10.841Z,1.00
2022-12-23T22:28:39.716Z,1.00
2022-12-23T22:31:42.443Z,0.80
2022-12-23T22:34:14.440Z,1.00
2022-12-23T22:36:42.220Z,0.80
2022-12-23T22:39:17.775Z,0.00
2022-12-23T22:41:47.836Z,0.60
2022-12-23T22:44:15.627Z,0.40
2022-12-23T22:46:43.480Z,1.00
2022-12-23T22:49:15.672Z,0.00
2022-12-23T22:51:44.624Z,0.00
2022-12-23T22:54:12.086Z,0.00
2022-12-23T22:56:39.516Z,0.00
2022-12-23T22:59:07.100Z,0.00
2022-12-23T23:01:36.319Z,0.00
2022-12-23T23:04:05.097Z,0.00
2022-12-23T23:06:38.271Z,0.00
2022-12-23T23:09:08.570Z,0.00
2022-12-23T23:11:36.926Z,0.00
2022-12-23T23:14:04.413Z,0.00
2022-12-23T23:16:32.557Z,0.00
2022-12-23T23:19:00.531Z,0.00
2022-12-23T23:21:28.083Z,0.00
2022-12-23T23:23:55.853Z,0.00
2022-12-23T23:26:27.584Z,0.00
2022-12-23T23:28:56.645Z,0.00
2022-12-23T23:31:41.979Z,0.00
2022-12-23T23:34:10.527Z,0.00
2022-12-23T23:36:38.032Z,0.00
2022-12-23T23:39:05.784Z,0.00
2022-12-23T23:41:33.282Z,0.00
2022-12-23T23:44:01.026Z,0.00
2022-12-23T23:46:29.297Z,0.00
2022-12-23T23:48:56.931Z,0.00
2022-12-23T23:51:24.521Z,0.00
2022-12-23T23:53:52.045Z,0.00
2022-12-23T23:56:25.135Z,0.00
2022-12-23T23:58:53.700Z,0.00
